Nearby METAR Reports

 

KSJC - San Jose, California, USA
Distance from station: NE 14km
Updated: 14/04/2024 07:53
Partly cloudy
Partly cloudy
 Wind from SSE
Wind: SSE 11 km/h
Temperature: 11°C
Dew Point: 7°C
Humidity: 77%
Barometer: 1016.6 hPa
Clouds: Partly cloudy
Visibility: 16 km
Cloud details: Few Clouds 762 m
Partly cloudy 1524 m
Partly cloudy 3658 m
2024/04/14 14:53 KSJC 141453Z 16006KT 10SM FEW025 SCT050 SCT120 11/07 A3002 RMK AO2 SLP165 T01060067 53019
KNUQ - Moffett Nas/Mtn, California, USA
Distance from station: N 14km
Updated: 14/04/2024 08:35
Overcast
Overcast
 Wind from N
Wind: N 17 km/h
Temperature: 10°C
Wind Chill: 8°C
Dew Point: 8°C
Humidity: 88%
Barometer: 1018.3 hPa
Clouds: Overcast
Visibility: 16 km
Cloud details: Mostly cloudy 518 m
Overcast 792 m
2024/04/14 15:35 KNUQ 141535Z AUTO 35009KT 10SM BKN017 OVC026 10/08 A3007 RMK AO2
 
KPAO - Palo Alto, California, USA
Distance from station: NNW 23km
Updated: 14/04/2024 07:47
Partly cloudy
Partly cloudy
 Wind from WNW
Wind: WNW 19 km/h
Temperature: 9°C
Wind Chill: 6°C
Dew Point: 7°C
Humidity: 87%
Barometer: 1017.3 hPa
Clouds: Partly cloudy
Visibility: 16 km
Cloud details: Few Clouds 610 m
Partly cloudy 1524 m
2024/04/14 14:47 KPAO 141447Z 30010KT 10SM FEW020 SCT050 09/07 A3004
KRHV - San Jose/Reid, California, USA
Distance from station: ENE 19km
Updated: 14/04/2024 07:47
Partly cloudy
Partly cloudy
 Wind from calm
Wind: Calm
Temperature: 9°C
Dew Point: 8°C
Humidity: 94%
Barometer: 1016.6 hPa
Clouds: Partly cloudy
Visibility: 16 km
Cloud details: Partly cloudy 914 m
2024/04/14 14:47 KRHV 141447Z 00000KT 10SM SCT030 09/08 A3002
 
KOAK - Oakland, California, USA
Distance from station: NNW 50km
Updated: 14/04/2024 07:53
Mostly cloudy
Mostly cloudy
 Wind from calm
Wind: Calm
Temperature: 9°C
Dew Point: 7°C
Humidity: 87%
Barometer: 1017.9 hPa
Clouds: Mostly cloudy
Visibility: 16 km
Cloud details: Few Clouds 305 m
Mostly cloudy 1036 m
Mostly cloudy 2896 m
2024/04/14 14:53 KOAK 141453Z 00000KT 10SM FEW010 BKN034 BKN095 09/07 A3006 RMK AO2 SLP179 T00890067 53025 $
KSQL - San Carlos Airpo, California, USA
Distance from station: NW 34km
Updated: 14/04/2024 07:45
Mostly cloudy
Mostly cloudy
 Wind from WNW
Wind: WNW 13 km/h
Temperature: 9°C
Wind Chill: 7°C
Dew Point: 2°C
Humidity: 62%
Barometer: 1017.6 hPa
Clouds: Mostly cloudy
Visibility: 16 km
Cloud details: Mostly cloudy 945 m
2024/04/14 14:45 KSQL 141445Z 30007KT 10SM BKN031 09/02 A3005 RMK AIRFIELD CLSD 1445-1645Z FOR 10K RUN EVENT
 
KSFO - San Francisco, California, USA
Distance from station: NW 49km
Updated: 14/04/2024 07:56
Mostly cloudy
Mostly cloudy
 Wind from NE
Wind: NE 19 km/h
Temperature: 10°C
Wind Chill: 7°C
Dew Point: 7°C
Humidity: 82%
Barometer: 1017.9 hPa
Clouds: Mostly cloudy
Visibility: 16 km
Cloud details: Few Clouds 305 m
Mostly cloudy 884 m
2024/04/14 14:56 KSFO 141456Z 05010KT 10SM FEW010 BKN029 10/07 A3006 RMK AO2 SLP178 T01000067 53028
KE16 - San Martin, California, USA
Distance from station: ESE 43km
Updated: 14/04/2024 08:35
Clear
Clear
 Wind from calm
Wind: Calm
Temperature: 10°C
Dew Point: 7°C
Humidity: 82%
Barometer: 1017.9 hPa
Clouds: Clear
Visibility: 16 km
2024/04/14 15:35 KE16 141535Z AUTO 00000KT 10SM CLR 10/07 A3006 RMK AO2 PWINO PNO
 
KWVI - Watsonville, California, USA
Distance from station: SSE 44km
Updated: 14/04/2024 07:53
Few Clouds
Few Clouds
 Wind from calm
Wind: Calm
Temperature: 10°C
Dew Point: 8°C
Humidity: 88%
Barometer: 1016.6 hPa
Clouds: Few Clouds
Visibility: 16 km
Cloud details: Few Clouds 945 m
2024/04/14 14:53 KWVI 141453Z AUTO 00000KT 10SM FEW031 10/08 A3002 RMK AO2 RAE30 SLP164 P0001 60009 T01000078 51017
KHAF - Half Moon Bay, California, USA
Distance from station: WNW 50km
Updated: 14/04/2024 08:35
Clear
Clear
 Wind from NE
Wind: NE 22 km/h
Temperature: 10°C
Wind Chill: 7°C
Dew Point: 9°C
Humidity: 94%
Barometer: 1017.9 hPa
Clouds: Clear
Visibility: 13 km
2024/04/14 15:35 KHAF 141535Z AUTO 05012KT 8SM CLR 10/09 A3006 RMK AO2
 
KHWD - Hayward, California, USA
Distance from station: N 44km
Updated: 14/04/2024 07:54
Overcast
Overcast
 Wind from NNE
Wind: NNE 19 km/h
Temperature: 10°C
Wind Chill: 7°C
Dew Point: 6°C
Humidity: 76%
Barometer: 1017.6 hPa
Clouds: Overcast
Visibility: 16 km
Cloud details: Overcast 1067 m
2024/04/14 14:54 KHWD 141454Z 03010KT 10SM OVC035 10/06 A3005 RMK AO2 SLP186 T01000061 53026
KLVK - Livermore, California, USA
Distance from station: NNE 51km
Updated: 14/04/2024 08:40
Overcast
Overcast
 Wind from ENE
Wind: ENE 17 km/h
Temperature: 8°C
Wind Chill: 5°C
Dew Point: 7°C
Humidity: 93%
Barometer: 1018.3 hPa
Clouds: Overcast
Visibility: 16 km
Cloud details: Few Clouds 274 m
Overcast 1676 m
2024/04/14 15:40 KLVK 141540Z 06009KT 10SM FEW009 OVC055 08/07 A3007 RMK AO2 T00830067